Stations météo

réclame
Mon MeteoGroup
Bealach, Grande-Bretagne (3039): Température de l'air & dewpoint: 19.10.2020 08:00:00 - 25.10.2020 08:00:00 (GMT)Bealach, Grande-Bretagne (3039): Vitesse du vent & gusts: 19.10.2020 08:00:00 - 25.10.2020 08:00:00 (GMT)Bealach, Grande-Bretagne (3039): Direction du vent: 19.10.2020 08:00:00 - 25.10.2020 08:00:00 (GMT)
Date & Time tt [°C] td [°C] ff [km/h] ff [knt] fx [km/h] fx [knt] dd
25.10.2020 08:00:00 - - - - - - -
25.10.2020 07:00:00 2,2 2,2 55 30 102 55 SSE
25.10.2020 06:00:00 2,2 2,2 35 19 81 44 SSE
25.10.2020 05:00:00 1,9 1,9 50 27 102 55 S
25.10.2020 04:00:00 2,0 2,0 50 27 117 63 S
25.10.2020 03:00:00 2,3 2,3 35 19 91 49 SSE
25.10.2020 02:00:00 2,3 2,3 48 26 98 53 SSE
25.10.2020 01:00:00 2,3 2,3 42 23 91 49 SSE
25.10.2020 00:00:00 - - - - - - -
24.10.2020 23:00:00 2,3 2,3 37 20 93 50 S
24.10.2020 22:00:00 2,4 2,4 39 21 107 58 S
24.10.2020 21:00:00 2,2 2,2 42 23 89 48 SSE
24.10.2020 20:00:00 1,9 1,9 34 18 67 36 SSE
24.10.2020 19:00:00 1,0 1,0 37 20 72 39 SSE
24.10.2020 18:00:00 1,4 1,4 42 23 74 40 SSE
24.10.2020 17:00:00 1,6 1,6 50 27 85 46 S
24.10.2020 16:00:00 1,8 1,8 28 15 74 40 S
24.10.2020 15:00:00 1,7 1,7 24 13 85 46 SSE
24.10.2020 14:00:00 1,8 1,8 50 27 102 55 S
24.10.2020 13:00:00 2,7 2,7 24 13 107 58 S
24.10.2020 12:00:00 2,7 2,7 61 33 93 50 SSW
24.10.2020 11:00:00 2,2 2,2 74 40 113 61 SSW
24.10.2020 10:00:00 3,6 3,6 80 43 102 55 SSW
24.10.2020 09:00:00 2,9 2,9 76 41 98 53 SSW
24.10.2020 08:00:00 3,4 3,4 28 15 74 40 S
24.10.2020 07:00:00 2,5 2,5 39 21 67 36 SSW
24.10.2020 06:00:00 - - 55 30 124 67 WSW
24.10.2020 05:00:00 4,8 4,8 70 38 111 60 SSE
24.10.2020 04:00:00 4,0 4,0 54 29 96 52 SSE
24.10.2020 03:00:00 2,1 2,1 15 8 57 31 NE
24.10.2020 02:00:00 1,6 1,6 52 28 100 54 SSE
24.10.2020 01:00:00 1,7 1,3 61 33 111 60 SSE
24.10.2020 00:00:00 2,6 0,6 67 36 98 53 SSE
23.10.2020 23:00:00 2,4 1,7 68 37 107 58 SSE
23.10.2020 22:00:00 1,9 1,9 37 20 85 46 SSE
23.10.2020 21:00:00 2,1 2,1 21 11 48 26 SSE
23.10.2020 20:00:00 2,1 2,1 37 20 74 40 S
23.10.2020 19:00:00 2,0 2,0 46 25 61 33 S
23.10.2020 18:00:00 1,7 1,7 41 22 57 31 S
23.10.2020 17:00:00 2,5 1,9 44 24 57 31 SSW
23.10.2020 16:00:00 2,7 0,6 26 14 52 28 SW
23.10.2020 15:00:00 2,2 0,2 31 17 - - WSW
23.10.2020 14:00:00 3,3 1,3 34 18 - - SW
23.10.2020 13:00:00 2,7 0,6 29 16 54 29 WSW
23.10.2020 12:00:00 3,4 0,2 37 20 46 25 WSW
23.10.2020 11:00:00 2,5 0,8 37 20 57 31 WSW
23.10.2020 10:00:00 2,8 1,7 31 17 46 25 WSW
23.10.2020 09:00:00 2,2 2,2 39 21 54 29 SW
23.10.2020 08:00:00 2,5 2,5 41 22 46 25 SSW
23.10.2020 07:00:00 1,9 1,9 31 17 72 39 WSW
23.10.2020 06:00:00 2,8 2,8 24 13 68 37 S
23.10.2020 05:00:00 2,3 2,3 41 22 72 39 SSE
23.10.2020 04:00:00 2,4 2,4 37 20 80 43 SSE
23.10.2020 03:00:00 2,4 2,4 35 19 78 42 SSE
23.10.2020 02:00:00 2,3 2,0 44 24 74 40 SSE
23.10.2020 01:00:00 2,0 1,7 39 21 70 38 SSE
23.10.2020 00:00:00 2,2 1,5 41 22 72 39 SSE
22.10.2020 23:00:00 2,2 0,9 34 18 61 33 SSE
22.10.2020 22:00:00 1,8 1,3 28 15 54 29 S
22.10.2020 21:00:00 1,8 1,5 24 13 50 27 SSE
22.10.2020 20:00:00 1,6 1,0 16 9 - - SSE
22.10.2020 19:00:00 1,7 1,3 16 9 - - S
22.10.2020 18:00:00 1,4 1,3 21 11 - - WSW
22.10.2020 17:00:00 2,0 2,0 21 11 - - WSW
22.10.2020 16:00:00 2,4 2,4 16 9 - - W
22.10.2020 15:00:00 3,2 2,9 11 6 - - SSW
22.10.2020 14:00:00 3,2 2,5 11 6 - - S
22.10.2020 13:00:00 3,1 1,7 5 3 - - SSW
22.10.2020 12:00:00 3,2 1,6 2 1 - - ESE
22.10.2020 11:00:00 2,4 1,3 8 4 - - ESE
22.10.2020 10:00:00 2,8 2,2 2 1 48 26 E
22.10.2020 09:00:00 2,5 2,5 5 3 - - ESE
22.10.2020 08:00:00 2,3 2,3 9 5 - - E
22.10.2020 07:00:00 2,6 2,6 11 6 - - NE
22.10.2020 06:00:00 2,7 2,7 9 5 - - ENE
22.10.2020 05:00:00 2,8 2,8 18 10 - - NE
22.10.2020 04:00:00 3,1 3,1 11 6 - - NNE
22.10.2020 03:00:00 3,1 3,1 16 9 - - NNE
22.10.2020 02:00:00 3,3 3,3 16 9 - - NNE
22.10.2020 01:00:00 3,4 3,4 15 8 - - ENE
22.10.2020 00:00:00 3,5 3,5 21 11 52 28 ENE
21.10.2020 23:00:00 3,5 3,5 31 17 54 29 NNE
21.10.2020 22:00:00 3,8 3,8 26 14 46 25 NNE
21.10.2020 21:00:00 4,1 4,1 29 16 57 31 NNE
21.10.2020 20:00:00 4,1 4,1 31 17 54 29 NNE
21.10.2020 19:00:00 4,3 4,3 35 19 54 29 NNE
21.10.2020 18:00:00 4,5 4,5 28 15 55 30 NE
21.10.2020 17:00:00 4,6 4,6 28 15 - - NE
21.10.2020 16:00:00 4,7 4,7 21 11 - - ENE
21.10.2020 15:00:00 4,9 4,8 18 10 - - ENE
21.10.2020 14:00:00 5,0 4,9 18 10 - - ENE
21.10.2020 13:00:00 5,4 4,9 18 10 - - ENE
21.10.2020 12:00:00 5,3 4,9 21 11 - - ENE
21.10.2020 11:00:00 5,1 5,0 13 7 - - ENE
21.10.2020 10:00:00 5,1 5,0 11 6 - - E
21.10.2020 09:00:00 5,3 5,2 15 8 - - E
21.10.2020 08:00:00 5,4 5,4 11 6 - - ENE
21.10.2020 07:00:00 5,5 5,5 11 6 - - E
21.10.2020 06:00:00 5,6 5,5 15 8 - - ENE
21.10.2020 05:00:00 5,5 5,5 16 9 - - ENE
21.10.2020 04:00:00 5,4 5,4 22 12 - - E
21.10.2020 03:00:00 5,4 5,4 21 11 50 27 E
21.10.2020 02:00:00 5,6 5,5 34 18 57 31 E
21.10.2020 01:00:00 5,6 5,6 37 20 57 31 E
21.10.2020 00:00:00 5,7 5,7 22 12 - - E
20.10.2020 23:00:00 5,9 5,9 18 10 - - E
20.10.2020 22:00:00 6,0 6,0 16 9 - - ENE
20.10.2020 21:00:00 6,0 6,0 26 14 - - E
20.10.2020 20:00:00 6,1 6,0 24 13 - - E
20.10.2020 19:00:00 6,1 6,1 22 12 - - E
20.10.2020 18:00:00 6,1 6,1 11 6 - - ESE
20.10.2020 17:00:00 6,6 5,8 9 5 - - ESE
20.10.2020 16:00:00 7,0 4,3 15 8 - - E
20.10.2020 15:00:00 6,7 5,7 13 7 - - ESE
20.10.2020 14:00:00 6,5 5,6 22 12 - - ESE
20.10.2020 13:00:00 6,2 4,9 13 7 - - ESE
20.10.2020 12:00:00 5,9 5,9 16 9 - - ESE
20.10.2020 11:00:00 5,7 5,7 22 12 - - E
20.10.2020 10:00:00 5,6 5,6 16 9 - - ESE
20.10.2020 09:00:00 5,7 5,7 18 10 - - ESE
20.10.2020 08:00:00 5,8 5,7 21 11 - - ESE
20.10.2020 07:00:00 6,0 6,0 18 10 - - ESE
20.10.2020 06:00:00 6,3 6,3 22 12 - - ESE
20.10.2020 05:00:00 6,4 6,4 21 11 - - ESE
20.10.2020 04:00:00 6,6 6,5 26 14 - - E
20.10.2020 03:00:00 6,8 6,8 11 6 - - SE
20.10.2020 02:00:00 7,0 7,0 16 9 57 31 SE
20.10.2020 01:00:00 7,1 7,1 24 13 54 29 SSE
20.10.2020 00:00:00 7,3 7,2 26 14 - - S
19.10.2020 23:00:00 6,1 6,1 13 7 - - ESE
19.10.2020 22:00:00 6,1 6,1 18 10 - - ESE
19.10.2020 21:00:00 6,1 6,1 21 11 - - E
19.10.2020 20:00:00 6,1 6,1 11 6 - - E
19.10.2020 19:00:00 6,3 6,3 13 7 - - SE
19.10.2020 18:00:00 6,2 6,2 11 6 - - SE
19.10.2020 17:00:00 6,3 6,3 13 7 - - SE
19.10.2020 16:00:00 6,7 6,7 21 11 - - S
19.10.2020 15:00:00 6,7 6,7 26 14 - - S
19.10.2020 14:00:00 5,8 5,8 15 8 - - SE
19.10.2020 13:00:00 6,4 6,4 22 12 - - SSE
19.10.2020 12:00:00 5,8 5,8 24 13 - - S
19.10.2020 11:00:00 4,1 4,0 13 7 - - ESE
19.10.2020 10:00:00 3,5 3,1 13 7 - - ESE
19.10.2020 09:00:00 3,6 3,4 8 4 - - ESE
19.10.2020 08:00:00 3,7 3,7 11 6 - - E

tt = Température de l'air
td = dewpoint
ff = Vitesse du vent
fx = gusts
dd = Direction du vent

stations d'obs. à proximité